THA603 VHHH-VTBS
Flight info
| Callsign | THA603 |
|---|---|
| Flight time | N/A |
| Altitude | 36000 |
| Route | PECAN V10 SIKOU/K0865S1100 A202 ASSAD/K0863F360 A202 VILAO/N0466F360 A202 RAMEI W42 PAKRI Y13 RUKSA EASTE1C |
| Aircraft | A21N/M-SDE2E3FGHIJ1RWXY/LB1 |
Departure
| Time | 2026-05-04 12:10 |
|---|---|
| Airport | Hong Kong International Airport (VHHH) |
Arrival
| Time | N/A |
|---|---|
| Airport | Suvarnabhumi Airport (VTBS) |
| Time | Latitude | Longitude | Altitude | Speed | Heading |
|---|---|---|---|---|---|
| 2026-05-04 11:38 | 22.30931 | 113.92633 | 34 ft | 0 kts | 291° |
| 2026-05-04 11:51 | 22.30926 | 113.92647 | 32 ft | 2 kts | 291° |
| 2026-05-04 11:51 | 22.30920 | 113.92664 | 32 ft | 2 kts | 291° |
| 2026-05-04 11:51 | 22.30914 | 113.92680 | 31 ft | 2 kts | 292° |
| 2026-05-04 11:51 | 22.30909 | 113.92697 | 33 ft | 2 kts | 283° |
| 2026-05-04 11:52 | 22.30906 | 113.92714 | 33 ft | 2 kts | 275° |
| 2026-05-04 11:52 | 22.30906 | 113.92732 | 34 ft | 2 kts | 266° |
| 2026-05-04 11:52 | 22.30908 | 113.92749 | 33 ft | 2 kts | 249° |
| 2026-05-04 11:52 | 22.30913 | 113.92759 | 31 ft | 1 kts | 225° |
| 2026-05-04 11:53 | 22.30914 | 113.92759 | 31 ft | 0 kts | 222° |
| 2026-05-04 11:57 | 22.30912 | 113.92758 | 34 ft | 2 kts | 220° |
| 2026-05-04 11:57 | 22.30896 | 113.92749 | 34 ft | 5 kts | 205° |
| 2026-05-04 11:58 | 22.30848 | 113.92720 | 34 ft | 0 kts | 214° |
| 2026-05-04 11:58 | 22.30846 | 113.92720 | 34 ft | 0 kts | 198° |
| 2026-05-04 11:58 | 22.30843 | 113.92719 | 34 ft | 1 kts | 198° |
| 2026-05-04 11:58 | 22.30842 | 113.92717 | 34 ft | 1 kts | 219° |
| 2026-05-04 11:59 | 22.30786 | 113.92585 | 34 ft | 25 kts | 260° |
| 2026-05-04 11:59 | 22.30740 | 113.92409 | 34 ft | 24 kts | 251° |
| 2026-05-04 11:59 | 22.30685 | 113.92235 | 34 ft | 24 kts | 251° |
| 2026-05-04 11:59 | 22.30626 | 113.92063 | 34 ft | 24 kts | 250° |
| 2026-05-04 12:00 | 22.30571 | 113.91890 | 33 ft | 24 kts | 249° |
| 2026-05-04 12:00 | 22.30512 | 113.91718 | 34 ft | 25 kts | 250° |
| 2026-05-04 12:00 | 22.30456 | 113.91543 | 33 ft | 25 kts | 251° |
| 2026-05-04 12:00 | 22.30400 | 113.91366 | 33 ft | 25 kts | 251° |
| 2026-05-04 12:01 | 22.30348 | 113.91189 | 33 ft | 25 kts | 252° |
| 2026-05-04 12:01 | 22.30293 | 113.91013 | 33 ft | 25 kts | 251° |
| 2026-05-04 12:02 | 22.29948 | 113.89950 | 33 ft | 25 kts | 251° |
| 2026-05-04 12:03 | 22.29889 | 113.89771 | 33 ft | 24 kts | 244° |
| 2026-05-04 12:03 | 22.29776 | 113.89755 | 33 ft | 17 kts | 161° |
| 2026-05-04 12:03 | 22.29660 | 113.89797 | 33 ft | 18 kts | 161° |
| 2026-05-04 12:03 | 22.29545 | 113.89842 | 34 ft | 18 kts | 153° |
| 2026-05-04 12:04 | 22.29489 | 113.89946 | 33 ft | 17 kts | 85° |
| 2026-05-04 12:04 | 22.29525 | 113.90064 | 32 ft | 16 kts | 65° |
| 2026-05-04 12:04 | 22.29569 | 113.90174 | 33 ft | 16 kts | 71° |
| 2026-05-04 12:04 | 22.29604 | 113.90286 | 33 ft | 16 kts | 71° |
| 2026-05-04 12:05 | 22.29619 | 113.90336 | 32 ft | 5 kts | 71° |
| 2026-05-04 12:05 | 22.29630 | 113.90376 | 31 ft | 6 kts | 70° |
| 2026-05-04 12:05 | 22.29652 | 113.90406 | 32 ft | 5 kts | 44° |
| 2026-05-04 12:05 | 22.29679 | 113.90432 | 32 ft | 5 kts | 38° |
| 2026-05-04 12:06 | 22.29710 | 113.90459 | 32 ft | 6 kts | 38° |
| 2026-05-04 12:06 | 22.29746 | 113.90490 | 32 ft | 7 kts | 39° |
| 2026-05-04 12:06 | 22.29792 | 113.90532 | 32 ft | 11 kts | 39° |
| 2026-05-04 12:06 | 22.29853 | 113.90586 | 32 ft | 12 kts | 39° |
| 2026-05-04 12:07 | 22.29892 | 113.90645 | 32 ft | 0 kts | 69° |
| 2026-05-04 12:09 | 22.29912 | 113.90703 | 33 ft | 36 kts | 70° |
| 2026-05-04 12:09 | 22.30086 | 113.91240 | 35 ft | 117 kts | 71° |
| 2026-05-04 12:10 | 22.30424 | 113.92321 | 211 ft | 171 kts | 72° |
| 2026-05-04 12:10 | 22.30806 | 113.93578 | 886 ft | 183 kts | 72° |
| 2026-05-04 12:10 | 22.31199 | 113.94938 | 1588 ft | 197 kts | 74° |
| 2026-05-04 12:10 | 22.31587 | 113.96356 | 2150 ft | 196 kts | 74° |
| 2026-05-04 12:11 | 22.32063 | 113.97783 | 2343 ft | 210 kts | 71° |
| 2026-05-04 12:11 | 22.32618 | 113.99358 | 2639 ft | 238 kts | 71° |
| 2026-05-04 12:11 | 22.33209 | 114.01090 | 3234 ft | 252 kts | 71° |
| 2026-05-04 12:11 | 22.33704 | 114.02946 | 3888 ft | 263 kts | 83° |
| 2026-05-04 12:12 | 22.33631 | 114.04938 | 4603 ft | 271 kts | 106° |
| 2026-05-04 12:12 | 22.32780 | 114.06756 | 5327 ft | 276 kts | 132° |
| 2026-05-04 12:12 | 22.31292 | 114.08073 | 6041 ft | 279 kts | 155° |
| 2026-05-04 12:12 | 22.29456 | 114.08714 | 6790 ft | 278 kts | 175° |
| 2026-05-04 12:13 | 22.27520 | 114.08812 | 7569 ft | 280 kts | 184° |
| 2026-05-04 12:14 | 22.12618 | 114.08770 | 11405 ft | 358 kts | 184° |
| 2026-05-04 12:15 | 22.10072 | 114.08775 | 11703 ft | 371 kts | 184° |
| 2026-05-04 12:15 | 22.08346 | 114.08779 | 11990 ft | 376 kts | 184° |
| 2026-05-04 12:15 | 22.07204 | 114.08781 | 12199 ft | 378 kts | 184° |
| 2026-05-04 12:15 | 22.04559 | 114.08788 | 12732 ft | 381 kts | 184° |
| 2026-05-04 12:16 | 22.01895 | 114.08794 | 13291 ft | 384 kts | 184° |
| 2026-05-04 12:16 | 21.99214 | 114.08798 | 13826 ft | 387 kts | 184° |
| 2026-05-04 12:16 | 21.96502 | 114.08802 | 14281 ft | 391 kts | 184° |
| 2026-05-04 12:16 | 21.93770 | 114.08806 | 14718 ft | 394 kts | 184° |
| 2026-05-04 12:17 | 21.91018 | 114.08809 | 15152 ft | 397 kts | 184° |
| 2026-05-04 12:17 | 21.88246 | 114.08813 | 15561 ft | 400 kts | 184° |
| 2026-05-04 12:17 | 21.85459 | 114.08817 | 16018 ft | 402 kts | 184° |
| 2026-05-04 12:17 | 21.82652 | 114.08820 | 16418 ft | 404 kts | 184° |
| 2026-05-04 12:18 | 21.79832 | 114.08824 | 16817 ft | 407 kts | 184° |
| 2026-05-04 12:18 | 21.76992 | 114.08827 | 17181 ft | 409 kts | 184° |
| 2026-05-04 12:18 | 21.74135 | 114.08831 | 17516 ft | 412 kts | 184° |
| 2026-05-04 12:18 | 21.71261 | 114.08834 | 17832 ft | 414 kts | 184° |
| 2026-05-04 12:19 | 21.68366 | 114.08838 | 18131 ft | 417 kts | 184° |
| 2026-05-04 12:19 | 21.65469 | 114.08793 | 18399 ft | 417 kts | 188° |
| 2026-05-04 12:19 | 21.62611 | 114.08336 | 18629 ft | 414 kts | 195° |
| 2026-05-04 12:19 | 21.59802 | 114.07647 | 18852 ft | 415 kts | 197° |
| 2026-05-04 12:20 | 21.56987 | 114.06910 | 19075 ft | 415 kts | 198° |
| 2026-05-04 12:20 | 21.54183 | 114.06173 | 19305 ft | 416 kts | 197° |
| 2026-05-04 12:20 | 21.51367 | 114.05436 | 19476 ft | 417 kts | 197° |
| 2026-05-04 12:20 | 21.48538 | 114.04699 | 19642 ft | 419 kts | 197° |
| 2026-05-04 12:21 | 21.45727 | 114.03902 | 19793 ft | 418 kts | 201° |
| 2026-05-04 12:21 | 21.43045 | 114.02737 | 19941 ft | 415 kts | 210° |
| 2026-05-04 12:21 | 21.40531 | 114.01229 | 20074 ft | 414 kts | 214° |
| 2026-05-04 12:21 | 21.38086 | 113.99578 | 20208 ft | 414 kts | 216° |
| 2026-05-04 12:22 | 21.35688 | 113.97862 | 20351 ft | 415 kts | 217° |
| 2026-05-04 12:22 | 21.33301 | 113.96121 | 20487 ft | 416 kts | 217° |
| 2026-05-04 12:22 | 21.30905 | 113.94374 | 20622 ft | 417 kts | 217° |
| 2026-05-04 12:22 | 21.28510 | 113.92643 | 20826 ft | 416 kts | 217° |
| 2026-05-04 12:23 | 21.26095 | 113.90915 | 21010 ft | 416 kts | 217° |
| 2026-05-04 12:23 | 21.23679 | 113.89198 | 21165 ft | 418 kts | 216° |
| 2026-05-04 12:23 | 21.21249 | 113.87479 | 21312 ft | 419 kts | 216° |
| 2026-05-04 12:23 | 21.18805 | 113.85755 | 21491 ft | 420 kts | 216° |
| 2026-05-04 12:24 | 21.16356 | 113.84031 | 21680 ft | 422 kts | 216° |
| 2026-05-04 12:24 | 21.13925 | 113.82270 | 21866 ft | 422 kts | 219° |
| 2026-05-04 12:24 | 21.11663 | 113.80279 | 22053 ft | 421 kts | 225° |
| 2026-05-04 12:24 | 21.09665 | 113.77997 | 22257 ft | 420 kts | 233° |
| 2026-05-04 12:25 | 21.08003 | 113.75427 | 22463 ft | 420 kts | 241° |
| 2026-05-04 12:25 | 21.06715 | 113.72616 | 22590 ft | 423 kts | 248° |
| 2026-05-04 12:25 | 21.05634 | 113.69682 | 22762 ft | 425 kts | 250° |
| 2026-05-04 12:25 | 21.04650 | 113.66702 | 22996 ft | 426 kts | 251° |
| 2026-05-04 12:26 | 21.03707 | 113.63697 | 23252 ft | 426 kts | 252° |
| 2026-05-04 12:26 | 21.02774 | 113.60689 | 23512 ft | 426 kts | 252° |
| 2026-05-04 12:26 | 21.01834 | 113.57678 | 23694 ft | 428 kts | 252° |
| 2026-05-04 12:26 | 21.00877 | 113.54656 | 23872 ft | 429 kts | 251° |
| 2026-05-04 12:27 | 20.99908 | 113.51630 | 24062 ft | 430 kts | 251° |
| 2026-05-04 12:27 | 20.98928 | 113.48599 | 24266 ft | 431 kts | 251° |
| 2026-05-04 12:27 | 20.97942 | 113.45564 | 24467 ft | 432 kts | 251° |
| 2026-05-04 12:27 | 20.96965 | 113.42565 | 24667 ft | 433 kts | 251° |
| 2026-05-04 12:28 | 20.95971 | 113.39517 | 24847 ft | 435 kts | 251° |
| 2026-05-04 12:28 | 20.94971 | 113.36452 | 25068 ft | 436 kts | 251° |
| 2026-05-04 12:28 | 20.93971 | 113.33388 | 25313 ft | 437 kts | 251° |
| 2026-05-04 12:28 | 20.92968 | 113.30317 | 25563 ft | 438 kts | 251° |
| 2026-05-04 12:29 | 20.91961 | 113.27232 | 25826 ft | 439 kts | 251° |
| 2026-05-04 12:29 | 20.90952 | 113.24145 | 26094 ft | 441 kts | 251° |
| 2026-05-04 12:29 | 20.89939 | 113.21047 | 26362 ft | 442 kts | 251° |
| 2026-05-04 12:29 | 20.88924 | 113.17943 | 26624 ft | 443 kts | 251° |
| 2026-05-04 12:30 | 20.87905 | 113.14830 | 26915 ft | 443 kts | 251° |
| 2026-05-04 12:30 | 20.86889 | 113.11729 | 27299 ft | 441 kts | 251° |
| 2026-05-04 12:30 | 20.85877 | 113.08642 | 27750 ft | 438 kts | 251° |
| 2026-05-04 12:30 | 20.84871 | 113.05577 | 28204 ft | 435 kts | 251° |
| 2026-05-04 12:31 | 20.83872 | 113.02535 | 28610 ft | 433 kts | 251° |
| 2026-05-04 12:31 | 20.82878 | 112.99509 | 28951 ft | 432 kts | 251° |
| 2026-05-04 12:31 | 20.81878 | 112.96466 | 29088 ft | 436 kts | 251° |
| 2026-05-04 12:31 | 20.80867 | 112.93395 | 29344 ft | 437 kts | 250° |
| 2026-05-04 12:32 | 20.79860 | 112.90336 | 29737 ft | 435 kts | 250° |
| 2026-05-04 12:32 | 20.77861 | 112.84267 | 30442 ft | 432 kts | 251° |
| 2026-05-04 12:32 | 20.76864 | 112.81244 | 30761 ft | 430 kts | 251° |
| 2026-05-04 12:33 | 20.75872 | 112.78238 | 31073 ft | 429 kts | 251° |
| 2026-05-04 12:33 | 20.74885 | 112.75249 | 31459 ft | 425 kts | 251° |
| 2026-05-04 12:33 | 20.73916 | 112.72318 | 31823 ft | 422 kts | 251° |
| 2026-05-04 12:33 | 20.72940 | 112.69366 | 32121 ft | 421 kts | 251° |
| 2026-05-04 12:34 | 20.71964 | 112.66416 | 32426 ft | 420 kts | 251° |
| 2026-05-04 12:34 | 20.70992 | 112.63481 | 32721 ft | 419 kts | 251° |
| 2026-05-04 12:34 | 20.70021 | 112.60550 | 33034 ft | 418 kts | 251° |
| 2026-05-04 12:34 | 20.69366 | 112.58576 | 33230 ft | 417 kts | 251° |
| 2026-05-04 12:35 | 20.68087 | 112.54719 | 33617 ft | 415 kts | 252° |
| 2026-05-04 12:35 | 20.67123 | 112.51817 | 33903 ft | 414 kts | 252° |
| 2026-05-04 12:35 | 20.66162 | 112.48922 | 34166 ft | 413 kts | 252° |
| 2026-05-04 12:35 | 20.65526 | 112.47007 | 34319 ft | 413 kts | 252° |
| 2026-05-04 12:36 | 20.64566 | 112.44120 | 34504 ft | 413 kts | 252° |
| 2026-05-04 12:36 | 20.63605 | 112.41233 | 34670 ft | 414 kts | 252° |
| 2026-05-04 12:36 | 20.62641 | 112.38338 | 34869 ft | 413 kts | 252° |
| 2026-05-04 12:36 | 20.61678 | 112.35447 | 35083 ft | 413 kts | 252° |
| 2026-05-04 12:37 | 20.60718 | 112.32567 | 35302 ft | 412 kts | 252° |
| 2026-05-04 12:37 | 20.59756 | 112.29684 | 35486 ft | 412 kts | 252° |
| 2026-05-04 12:37 | 20.58795 | 112.26804 | 35689 ft | 411 kts | 252° |
| 2026-05-04 12:37 | 20.57836 | 112.23932 | 35866 ft | 411 kts | 252° |
| 2026-05-04 12:38 | 20.57001 | 112.21021 | 36035 ft | 410 kts | 258° |
| 2026-05-04 12:38 | 20.56527 | 112.18026 | 36187 ft | 409 kts | 265° |
| 2026-05-04 12:38 | 20.56481 | 112.14994 | 36343 ft | 409 kts | 274° |
| 2026-05-04 12:38 | 20.56896 | 112.11986 | 36489 ft | 411 kts | 282° |
| 2026-05-04 12:39 | 20.57779 | 112.09075 | 36585 ft | 414 kts | 290° |
| 2026-05-04 12:39 | 20.58927 | 112.06256 | 36741 ft | 415 kts | 292° |
| 2026-05-04 12:39 | 20.60164 | 112.03471 | 36913 ft | 415 kts | 293° |
| 2026-05-04 12:39 | 20.61438 | 112.00707 | 37084 ft | 415 kts | 293° |
| 2026-05-04 12:40 | 20.62720 | 111.97950 | 37250 ft | 414 kts | 293° |
| 2026-05-04 12:40 | 20.63996 | 111.95197 | 37414 ft | 414 kts | 293° |
| 2026-05-04 12:40 | 20.65262 | 111.92441 | 37570 ft | 413 kts | 293° |
| 2026-05-04 12:40 | 20.66518 | 111.89683 | 37726 ft | 413 kts | 293° |
| 2026-05-04 12:41 | 20.67766 | 111.86925 | 37877 ft | 412 kts | 293° |
| 2026-05-04 12:41 | 20.69012 | 111.84163 | 38003 ft | 413 kts | 293° |
| 2026-05-04 12:41 | 20.70254 | 111.81401 | 38026 ft | 413 kts | 293° |
| 2026-05-04 12:42 | 20.72737 | 111.75878 | 38025 ft | 412 kts | 293° |
| 2026-05-04 12:42 | 20.75218 | 111.70352 | 38027 ft | 413 kts | 293° |
| 2026-05-04 12:43 | 20.77700 | 111.64822 | 38028 ft | 413 kts | 293° |
| 2026-05-04 12:43 | 20.80183 | 111.59287 | 38029 ft | 413 kts | 293° |
| 2026-05-04 12:44 | 20.82272 | 111.53647 | 38029 ft | 409 kts | 282° |
| 2026-05-04 12:44 | 20.82830 | 111.47639 | 38032 ft | 407 kts | 266° |
| 2026-05-04 12:45 | 20.81629 | 111.41729 | 38032 ft | 409 kts | 253° |
| 2026-05-04 12:45 | 20.79744 | 111.35976 | 38032 ft | 411 kts | 252° |
| 2026-05-04 12:46 | 20.77755 | 111.30243 | 38030 ft | 411 kts | 252° |
| 2026-05-04 12:46 | 20.75789 | 111.24513 | 38031 ft | 411 kts | 252° |
| 2026-05-04 12:47 | 20.73845 | 111.18765 | 38032 ft | 411 kts | 252° |
| 2026-05-04 12:47 | 20.71909 | 111.13017 | 38031 ft | 411 kts | 252° |
| 2026-05-04 12:48 | 20.69970 | 111.07261 | 38032 ft | 412 kts | 252° |
| 2026-05-04 12:48 | 20.68026 | 111.01504 | 38032 ft | 412 kts | 252° |
| 2026-05-04 12:49 | 20.66077 | 110.95742 | 38031 ft | 412 kts | 252° |
| 2026-05-04 12:49 | 20.64128 | 110.89982 | 38033 ft | 412 kts | 252° |
| 2026-05-04 12:50 | 20.62192 | 110.84218 | 38023 ft | 413 kts | 252° |
| 2026-05-04 12:50 | 20.60256 | 110.78448 | 38025 ft | 413 kts | 252° |
| 2026-05-04 12:51 | 20.58318 | 110.72681 | 38027 ft | 413 kts | 252° |
| 2026-05-04 12:51 | 20.56374 | 110.66905 | 38029 ft | 413 kts | 252° |
| 2026-05-04 12:52 | 20.54427 | 110.61132 | 38032 ft | 413 kts | 252° |
| 2026-05-04 12:52 | 20.52479 | 110.55361 | 38031 ft | 414 kts | 252° |
| 2026-05-04 12:53 | 20.50226 | 110.49716 | 38028 ft | 416 kts | 242° |
| 2026-05-04 12:53 | 20.46859 | 110.44661 | 38031 ft | 419 kts | 236° |
| 2026-05-04 12:54 | 20.43216 | 110.39848 | 38032 ft | 421 kts | 234° |
| 2026-05-04 12:54 | 20.39489 | 110.35037 | 38028 ft | 421 kts | 234° |
| 2026-05-04 12:55 | 20.35776 | 110.30221 | 38048 ft | 421 kts | 234° |
| 2026-05-04 12:55 | 20.32076 | 110.25396 | 38051 ft | 420 kts | 234° |
| 2026-05-04 12:56 | 20.28397 | 110.20557 | 38033 ft | 420 kts | 235° |
| 2026-05-04 12:56 | 20.24752 | 110.15687 | 38031 ft | 420 kts | 236° |
| 2026-05-04 12:57 | 20.21118 | 110.10826 | 38030 ft | 419 kts | 236° |
| 2026-05-04 12:57 | 20.17491 | 110.05984 | 38019 ft | 418 kts | 236° |
| 2026-05-04 12:58 | 20.13860 | 110.01148 | 38023 ft | 418 kts | 236° |
| 2026-05-04 12:58 | 20.10239 | 109.96331 | 38015 ft | 418 kts | 236° |
| 2026-05-04 12:59 | 20.06609 | 109.91504 | 38027 ft | 418 kts | 236° |
| 2026-05-04 12:59 | 20.02975 | 109.86677 | 38014 ft | 418 kts | 236° |
| 2026-05-04 13:00 | 19.99348 | 109.81863 | 38027 ft | 418 kts | 236° |
| 2026-05-04 13:00 | 19.95707 | 109.77034 | 38025 ft | 419 kts | 236° |
| 2026-05-04 13:01 | 19.92065 | 109.72209 | 38032 ft | 418 kts | 236° |
| 2026-05-04 13:01 | 19.88423 | 109.67386 | 38021 ft | 418 kts | 236° |
| 2026-05-04 13:02 | 19.84780 | 109.62567 | 38019 ft | 418 kts | 236° |
| 2026-05-04 13:02 | 19.81136 | 109.57750 | 38019 ft | 418 kts | 236° |
| 2026-05-04 13:03 | 19.77513 | 109.52965 | 38027 ft | 418 kts | 236° |
| 2026-05-04 13:03 | 19.73873 | 109.48160 | 38020 ft | 419 kts | 236° |
| 2026-05-04 13:04 | 19.70220 | 109.43343 | 38017 ft | 419 kts | 235° |
| 2026-05-04 13:04 | 19.66553 | 109.38510 | 38021 ft | 420 kts | 235° |
| 2026-05-04 13:05 | 19.62886 | 109.33684 | 38013 ft | 421 kts | 235° |
| 2026-05-04 13:05 | 19.59213 | 109.28853 | 38019 ft | 421 kts | 235° |
| 2026-05-04 13:06 | 19.55537 | 109.24022 | 38019 ft | 421 kts | 235° |
| 2026-05-04 13:06 | 19.51860 | 109.19196 | 38016 ft | 421 kts | 234° |
| 2026-05-04 13:07 | 19.48167 | 109.14388 | 38018 ft | 421 kts | 234° |
| 2026-05-04 13:07 | 19.44461 | 109.09586 | 38019 ft | 421 kts | 234° |
| 2026-05-04 13:08 | 19.40747 | 109.04775 | 38010 ft | 421 kts | 234° |
| 2026-05-04 13:08 | 19.37037 | 108.99971 | 38011 ft | 422 kts | 234° |
| 2026-05-04 13:09 | 19.33319 | 108.95161 | 38009 ft | 422 kts | 234° |
| 2026-05-04 13:09 | 19.29615 | 108.90370 | 38005 ft | 422 kts | 234° |
| 2026-05-04 13:10 | 19.25898 | 108.85568 | 38007 ft | 422 kts | 234° |
| 2026-05-04 13:10 | 19.22202 | 108.80795 | 38003 ft | 422 kts | 234° |
| 2026-05-04 13:11 | 19.18461 | 108.75966 | 38004 ft | 422 kts | 233° |
| 2026-05-04 13:11 | 19.14754 | 108.71185 | 37990 ft | 423 kts | 233° |
| 2026-05-04 13:12 | 19.10991 | 108.66336 | 38000 ft | 425 kts | 233° |
| 2026-05-04 13:12 | 19.07238 | 108.61505 | 37998 ft | 425 kts | 233° |
| 2026-05-04 13:13 | 19.03484 | 108.56677 | 37999 ft | 425 kts | 233° |
| 2026-05-04 13:13 | 18.99750 | 108.51877 | 37997 ft | 425 kts | 233° |
| 2026-05-04 13:14 | 18.95966 | 108.47016 | 37993 ft | 425 kts | 233° |
| 2026-05-04 13:14 | 18.92231 | 108.42223 | 37998 ft | 425 kts | 233° |
| 2026-05-04 13:15 | 18.88465 | 108.37394 | 37999 ft | 426 kts | 233° |
| 2026-05-04 13:15 | 18.84696 | 108.32564 | 38000 ft | 427 kts | 233° |
| 2026-05-04 13:16 | 18.80906 | 108.27710 | 38001 ft | 429 kts | 233° |
| 2026-05-04 13:16 | 18.77116 | 108.22861 | 38002 ft | 429 kts | 233° |
| 2026-05-04 13:17 | 18.73317 | 108.18006 | 37996 ft | 429 kts | 233° |
| 2026-05-04 13:17 | 18.69514 | 108.13149 | 38002 ft | 429 kts | 233° |
| 2026-05-04 13:18 | 18.65717 | 108.08301 | 37999 ft | 429 kts | 233° |
| 2026-05-04 13:18 | 18.61915 | 108.03452 | 38001 ft | 429 kts | 233° |
| 2026-05-04 13:19 | 18.58113 | 107.98607 | 38006 ft | 429 kts | 233° |
| 2026-05-04 13:19 | 18.54304 | 107.93755 | 38009 ft | 431 kts | 233° |
| 2026-05-04 13:20 | 18.50466 | 107.88871 | 38013 ft | 432 kts | 233° |
| 2026-05-04 13:20 | 18.46635 | 107.84001 | 38018 ft | 433 kts | 233° |
| 2026-05-04 13:21 | 18.42796 | 107.79124 | 37999 ft | 433 kts | 233° |
| 2026-05-04 13:21 | 18.38955 | 107.74248 | 37999 ft | 432 kts | 233° |
| 2026-05-04 13:22 | 18.35128 | 107.69375 | 38000 ft | 431 kts | 235° |
| 2026-05-04 13:22 | 18.31750 | 107.64182 | 38014 ft | 429 kts | 239° |
| 2026-05-04 13:23 | 18.28530 | 107.58896 | 38005 ft | 429 kts | 240° |
| 2026-05-04 13:23 | 18.25331 | 107.53575 | 38011 ft | 430 kts | 240° |
| 2026-05-04 13:24 | 18.22670 | 107.49157 | 38008 ft | 430 kts | 240° |
| 2026-05-04 13:24 | 18.19459 | 107.43846 | 38011 ft | 431 kts | 240° |
| 2026-05-04 13:25 | 18.14630 | 107.35880 | 38007 ft | 431 kts | 240° |
| 2026-05-04 13:25 | 18.11407 | 107.30569 | 38010 ft | 431 kts | 240° |
| 2026-05-04 13:26 | 18.08185 | 107.25263 | 38009 ft | 431 kts | 240° |
| 2026-05-04 13:26 | 18.04959 | 107.19958 | 38008 ft | 431 kts | 240° |
| 2026-05-04 13:27 | 18.01730 | 107.14658 | 38013 ft | 431 kts | 240° |
| 2026-05-04 13:27 | 17.98500 | 107.09360 | 38013 ft | 431 kts | 240° |
| 2026-05-04 13:28 | 17.95264 | 107.04058 | 38015 ft | 431 kts | 240° |
| 2026-05-04 13:28 | 17.92033 | 106.98767 | 38004 ft | 430 kts | 240° |
| 2026-05-04 13:29 | 17.88804 | 106.93484 | 38008 ft | 430 kts | 240° |
| 2026-05-04 13:29 | 17.85605 | 106.88229 | 38012 ft | 430 kts | 240° |
| 2026-05-04 13:30 | 17.82373 | 106.82908 | 38017 ft | 430 kts | 240° |
| 2026-05-04 13:30 | 17.79180 | 106.77655 | 38013 ft | 430 kts | 240° |
| 2026-05-04 13:31 | 17.75963 | 106.72369 | 38021 ft | 430 kts | 240° |
| 2026-05-04 13:31 | 17.72744 | 106.67085 | 38023 ft | 429 kts | 240° |
| 2026-05-04 13:32 | 17.69525 | 106.61806 | 38022 ft | 430 kts | 239° |
| 2026-05-04 13:32 | 17.66874 | 106.57466 | 38024 ft | 430 kts | 239° |
| 2026-05-04 13:33 | 17.66611 | 106.57036 | 38026 ft | 430 kts | 239° |
| 2026-05-04 13:33 | 17.64565 | 106.53696 | 38028 ft | 431 kts | 239° |
| 2026-05-04 13:34 | 17.61325 | 106.48414 | 38031 ft | 431 kts | 239° |
| 2026-05-04 13:34 | 17.58083 | 106.43133 | 38031 ft | 431 kts | 239° |
| 2026-05-04 13:35 | 17.53223 | 106.35223 | 38030 ft | 430 kts | 239° |
| 2026-05-04 13:36 | 17.49984 | 106.29956 | 38036 ft | 429 kts | 239° |
| 2026-05-04 13:36 | 17.46755 | 106.24708 | 38038 ft | 429 kts | 239° |
| 2026-05-04 13:37 | 17.43521 | 106.19456 | 38033 ft | 429 kts | 239° |
| 2026-05-04 13:37 | 17.40287 | 106.14210 | 38039 ft | 430 kts | 239° |
| 2026-05-04 13:38 | 17.37032 | 106.08931 | 38039 ft | 432 kts | 239° |
| 2026-05-04 13:38 | 17.33800 | 106.03627 | 38025 ft | 432 kts | 239° |
| 2026-05-04 13:39 | 17.30590 | 105.98315 | 38029 ft | 432 kts | 240° |
| 2026-05-04 13:39 | 17.27381 | 105.93009 | 38025 ft | 431 kts | 240° |
| 2026-05-04 13:40 | 17.24169 | 105.87706 | 38001 ft | 432 kts | 240° |
| 2026-05-04 13:40 | 17.20973 | 105.82440 | 38004 ft | 431 kts | 239° |
| 2026-05-04 13:41 | 17.17760 | 105.77151 | 37987 ft | 431 kts | 239° |
| 2026-05-04 13:41 | 17.14541 | 105.71856 | 37986 ft | 431 kts | 239° |
| 2026-05-04 13:42 | 17.09712 | 105.63917 | 37976 ft | 431 kts | 239° |
| 2026-05-04 13:42 | 17.06493 | 105.58632 | 37978 ft | 431 kts | 239° |
| 2026-05-04 13:43 | 17.03269 | 105.53343 | 37978 ft | 431 kts | 239° |
| 2026-05-04 13:43 | 17.00051 | 105.48066 | 37969 ft | 431 kts | 239° |
| 2026-05-04 13:44 | 16.96829 | 105.42789 | 37971 ft | 431 kts | 239° |
| 2026-05-04 13:44 | 16.93602 | 105.37506 | 37971 ft | 431 kts | 239° |
| 2026-05-04 13:45 | 16.90379 | 105.32233 | 37966 ft | 431 kts | 239° |
| 2026-05-04 13:45 | 16.87149 | 105.26955 | 37967 ft | 431 kts | 239° |
| 2026-05-04 13:46 | 16.83923 | 105.21689 | 37966 ft | 430 kts | 239° |
| 2026-05-04 13:46 | 16.80718 | 105.16467 | 37960 ft | 430 kts | 239° |
| 2026-05-04 13:47 | 16.77485 | 105.11204 | 37963 ft | 431 kts | 239° |
| 2026-05-04 13:47 | 16.74251 | 105.05944 | 37958 ft | 431 kts | 239° |
| 2026-05-04 13:48 | 16.71014 | 105.00682 | 37960 ft | 431 kts | 239° |
| 2026-05-04 13:48 | 16.67776 | 104.95423 | 37950 ft | 431 kts | 239° |
| 2026-05-04 13:49 | 16.64535 | 104.90162 | 37945 ft | 432 kts | 239° |
| 2026-05-04 13:49 | 16.61285 | 104.84891 | 37940 ft | 432 kts | 239° |
| 2026-05-04 13:50 | 16.58038 | 104.79628 | 37938 ft | 432 kts | 239° |
| 2026-05-04 13:50 | 16.54408 | 104.74615 | 37939 ft | 434 kts | 232° |
| 2026-05-04 13:51 | 16.50430 | 104.69877 | 37936 ft | 434 kts | 230° |
| 2026-05-04 13:51 | 16.46402 | 104.65211 | 37942 ft | 433 kts | 230° |
| 2026-05-04 13:52 | 16.40365 | 104.58224 | 37946 ft | 432 kts | 230° |
| 2026-05-04 13:53 | 16.36348 | 104.53560 | 37943 ft | 432 kts | 230° |
| 2026-05-04 13:53 | 16.32330 | 104.48893 | 37942 ft | 433 kts | 230° |
| 2026-05-04 13:54 | 16.26313 | 104.41915 | 37931 ft | 433 kts | 230° |
| 2026-05-04 13:55 | 16.20240 | 104.34962 | 37919 ft | 433 kts | 230° |
| 2026-05-04 13:55 | 16.14179 | 104.28046 | 37922 ft | 434 kts | 230° |
| 2026-05-04 13:56 | 16.10111 | 104.23403 | 37925 ft | 434 kts | 230° |
| 2026-05-04 13:57 | 16.04002 | 104.16406 | 37917 ft | 434 kts | 231° |
| 2026-05-04 13:58 | 15.95999 | 104.07058 | 37914 ft | 434 kts | 231° |
| 2026-05-04 13:58 | 15.89975 | 104.00032 | 37913 ft | 434 kts | 231° |
| 2026-05-04 13:59 | 15.85959 | 103.95358 | 37915 ft | 434 kts | 231° |
| 2026-05-04 14:00 | 15.79933 | 103.88351 | 37917 ft | 434 kts | 231° |
| 2026-05-04 14:00 | 15.73910 | 103.81351 | 37922 ft | 433 kts | 230° |
| 2026-05-04 14:01 | 15.69892 | 103.76686 | 37922 ft | 433 kts | 230° |
| 2026-05-04 14:02 | 15.63860 | 103.69689 | 37924 ft | 434 kts | 230° |
| 2026-05-04 14:02 | 15.59836 | 103.65026 | 37925 ft | 434 kts | 230° |
| 2026-05-04 14:03 | 15.55813 | 103.60366 | 37917 ft | 434 kts | 230° |
| 2026-05-04 14:03 | 15.51781 | 103.55696 | 37925 ft | 435 kts | 230° |
| 2026-05-04 14:04 | 15.45727 | 103.48693 | 37934 ft | 435 kts | 230° |
| 2026-05-04 14:04 | 15.41681 | 103.44016 | 37936 ft | 435 kts | 230° |
| 2026-05-04 14:05 | 15.35621 | 103.37018 | 37938 ft | 435 kts | 230° |
| 2026-05-04 14:06 | 15.31575 | 103.32349 | 37939 ft | 435 kts | 230° |
| 2026-05-04 14:06 | 15.28899 | 103.29260 | 37944 ft | 435 kts | 230° |